sensor_id;sensor_type;location;lat;lon;timestamp;pressure;altitude;pressure_sealevel;temperature;humidity
11936;BME280;6027;48.576;9.180;2022-09-09T00:02:20;96562.88;;;14.81;100.00
11936;BME280;6027;48.576;9.180;2022-09-09T00:05:04;96568.56;;;14.85;100.00
11936;BME280;6027;48.576;9.180;2022-09-09T00:13:02;96554.91;;;14.75;100.00
11936;BME280;6027;48.576;9.180;2022-09-09T00:21:09;96545.16;;;14.94;100.00
11936;BME280;6027;48.576;9.180;2022-09-09T00:23:45;96533.06;;;14.91;100.00
11936;BME280;6027;48.576;9.180;2022-09-09T00:26:32;96540.25;;;14.91;100.00
11936;BME280;6027;48.576;9.180;2022-09-09T00:31:39;96537.19;;;14.87;100.00
11936;BME280;6027;48.576;9.180;2022-09-09T00:34:11;96541.28;;;14.90;100.00
11936;BME280;6027;48.576;9.180;2022-09-09T00:36:38;96545.41;;;14.85;100.00
11936;BME280;6027;48.576;9.180;2022-09-09T00:39:05;96546.81;;;14.88;100.00
11936;BME280;6027;48.576;9.180;2022-09-09T00:44:32;96547.84;;;14.87;100.00
11936;BME280;6027;48.576;9.180;2022-09-09T00:47:04;96550.59;;;14.80;100.00
11936;BME280;6027;48.576;9.180;2022-09-09T00:55:16;96544.38;;;14.86;100.00
11936;BME280;6027;48.576;9.180;2022-09-09T00:57:46;96544.38;;;14.86;100.00
11936;BME280;6027;48.576;9.180;2022-09-09T01:00:18;96549.31;;;14.83;100.00
11936;BME280;6027;48.576;9.180;2022-09-09T01:03:06;96552.56;;;14.85;100.00
11936;BME280;6027;48.576;9.180;2022-09-09T01:11:21;96550.19;;;14.77;100.00
11936;BME280;6027;48.576;9.180;2022-09-09T01:13:56;96551.88;;;14.71;100.00
11936;BME280;6027;48.576;9.180;2022-09-09T01:16:26;96544.09;;;14.70;100.00
11936;BME280;6027;48.576;9.180;2022-09-09T01:18:54;96548.63;;;14.63;100.00
11936;BME280;6027;48.576;9.180;2022-09-09T01:21:48;96552.72;;;14.65;100.00
11936;BME280;6027;48.576;9.180;2022-09-09T01:26:45;96540.56;;;14.44;100.00
11936;BME280;6027;48.576;9.180;2022-09-09T01:29:14;96544.19;;;14.57;100.00
11936;BME280;6027;48.576;9.180;2022-09-09T01:31:51;96551.75;;;14.60;100.00
11936;BME280;6027;48.576;9.180;2022-09-09T01:34:17;96549.25;;;14.65;100.00
11936;BME280;6027;48.576;9.180;2022-09-09T01:36:47;96551.47;;;14.68;100.00
11936;BME280;6027;48.576;9.180;2022-09-09T01:39:16;96556.41;;;14.64;100.00
11936;BME280;6027;48.576;9.180;2022-09-09T01:41:42;96548.56;;;14.76;100.00
11936;BME280;6027;48.576;9.180;2022-09-09T01:44:09;96553.53;;;14.66;100.00
11936;BME280;6027;48.576;9.180;2022-09-09T01:46:35;96544.50;;;14.67;100.00
11936;BME280;6027;48.576;9.180;2022-09-09T01:49:02;96559.84;;;14.71;100.00
11936;BME280;6027;48.576;9.180;2022-09-09T01:51:29;96564.97;;;14.73;100.00
11936;BME280;6027;48.576;9.180;2022-09-09T01:53:55;96566.00;;;14.72;100.00
11936;BME280;6027;48.576;9.180;2022-09-09T01:56:42;96568.72;;;14.65;100.00
11936;BME280;6027;48.576;9.180;2022-09-09T02:04:32;96568.47;;;14.42;100.00
11936;BME280;6027;48.576;9.180;2022-09-09T02:07:01;96570.66;;;14.45;100.00
11936;BME280;6027;48.576;9.180;2022-09-09T02:09:29;96557.56;;;14.43;100.00
11936;BME280;6027;48.576;9.180;2022-09-09T02:12:08;96559.44;;;14.43;100.00
11936;BME280;6027;48.576;9.180;2022-09-09T02:14:41;96550.84;;;14.41;100.00
11936;BME280;6027;48.576;9.180;2022-09-09T02:17:09;96547.53;;;14.45;100.00
11936;BME280;6027;48.576;9.180;2022-09-09T02:19:48;96550.78;;;14.47;100.00
11936;BME280;6027;48.576;9.180;2022-09-09T02:22:19;96554.47;;;14.46;100.00
11936;BME280;6027;48.576;9.180;2022-09-09T02:24:47;96557.56;;;14.43;100.00
11936;BME280;6027;48.576;9.180;2022-09-09T02:27:17;96549.84;;;14.29;100.00
11936;BME280;6027;48.576;9.180;2022-09-09T02:29:43;96547.97;;;14.36;100.00
11936;BME280;6027;48.576;9.180;2022-09-09T02:32:15;96546.34;;;14.41;100.00
11936;BME280;6027;48.576;9.180;2022-09-09T02:34:45;96540.09;;;14.54;100.00
11936;BME280;6027;48.576;9.180;2022-09-09T02:37:15;96556.50;;;14.51;100.00
11936;BME280;6027;48.576;9.180;2022-09-09T02:39:42;96566.44;;;14.24;100.00
11936;BME280;6027;48.576;9.180;2022-09-09T02:42:08;96574.63;;;14.29;100.00
11936;BME280;6027;48.576;9.180;2022-09-09T02:44:34;96574.63;;;14.29;100.00
11936;BME280;6027;48.576;9.180;2022-09-09T02:49:48;96571.06;;;14.04;100.00
11936;BME280;6027;48.576;9.180;2022-09-09T02:52:20;96579.63;;;14.12;100.00
11936;BME280;6027;48.576;9.180;2022-09-09T02:54:50;96573.47;;;14.12;100.00
11936;BME280;6027;48.576;9.180;2022-09-09T02:57:23;96566.69;;;14.23;100.00
11936;BME280;6027;48.576;9.180;2022-09-09T02:59:50;96555.22;;;14.22;100.00
11936;BME280;6027;48.576;9.180;2022-09-09T03:02:17;96561.56;;;14.21;100.00
11936;BME280;6027;48.576;9.180;2022-09-09T03:04:43;96568.56;;;14.15;100.00
11936;BME280;6027;48.576;9.180;2022-09-09T03:07:10;96564.50;;;14.06;100.00
11936;BME280;6027;48.576;9.180;2022-09-09T03:09:36;96573.69;;;14.10;100.00
11936;BME280;6027;48.576;9.180;2022-09-09T03:12:02;96563.66;;;14.06;100.00
11936;BME280;6027;48.576;9.180;2022-09-09T03:14:29;96560.81;;;14.07;100.00
11936;BME280;6027;48.576;9.180;2022-09-09T03:16:55;96570.41;;;14.08;100.00
11936;BME280;6027;48.576;9.180;2022-09-09T03:19:23;96571.66;;;14.06;100.00
11936;BME280;6027;48.576;9.180;2022-09-09T03:21:48;96567.81;;;14.02;100.00
11936;BME280;6027;48.576;9.180;2022-09-09T03:24:15;96576.63;;;14.02;100.00
11936;BME280;6027;48.576;9.180;2022-09-09T03:26:41;96578.69;;;13.94;100.00
11936;BME280;6027;48.576;9.180;2022-09-09T03:29:10;96584.22;;;13.92;100.00
11936;BME280;6027;48.576;9.180;2022-09-09T03:31:38;96588.75;;;13.78;100.00
11936;BME280;6027;48.576;9.180;2022-09-09T03:34:04;96584.31;;;13.66;100.00
11936;BME280;6027;48.576;9.180;2022-09-09T03:36:30;96584.72;;;13.56;100.00
11936;BME280;6027;48.576;9.180;2022-09-09T03:38:56;96585.38;;;13.45;100.00
11936;BME280;6027;48.576;9.180;2022-09-09T03:41:22;96589.00;;;13.51;100.00
11936;BME280;6027;48.576;9.180;2022-09-09T03:43:52;96590.69;;;13.45;100.00
11936;BME280;6027;48.576;9.180;2022-09-09T03:46:20;96576.94;;;13.55;100.00
11936;BME280;6027;48.576;9.180;2022-09-09T03:48:46;96578.56;;;13.56;100.00
11936;BME280;6027;48.576;9.180;2022-09-09T03:51:12;96569.56;;;13.63;100.00
11936;BME280;6027;48.576;9.180;2022-09-09T03:53:38;96564.03;;;13.65;100.00
11936;BME280;6027;48.576;9.180;2022-09-09T03:56:04;96565.69;;;13.66;100.00
11936;BME280;6027;48.576;9.180;2022-09-09T03:58:32;96577.09;;;13.73;100.00
11936;BME280;6027;48.576;9.180;2022-09-09T04:01:07;96576.69;;;13.82;100.00
11936;BME280;6027;48.576;9.180;2022-09-09T04:03:36;96576.06;;;13.80;100.00
11936;BME280;6027;48.576;9.180;2022-09-09T04:06:03;96574.03;;;13.69;100.00
11936;BME280;6027;48.576;9.180;2022-09-09T04:08:29;96568.72;;;13.76;100.00
11936;BME280;6027;48.576;9.180;2022-09-09T04:10:57;96567.72;;;13.64;100.00
11936;BME280;6027;48.576;9.180;2022-09-09T04:13:24;96562.22;;;13.59;100.00
11936;BME280;6027;48.576;9.180;2022-09-09T04:15:55;96567.13;;;13.62;100.00
11936;BME280;6027;48.576;9.180;2022-09-09T04:18:21;96572.78;;;13.78;100.00
11936;BME280;6027;48.576;9.180;2022-09-09T04:20:50;96563.22;;;13.64;100.00
11936;BME280;6027;48.576;9.180;2022-09-09T04:23:17;96565.81;;;13.84;100.00
11936;BME280;6027;48.576;9.180;2022-09-09T04:25:53;96567.00;;;13.88;100.00
11936;BME280;6027;48.576;9.180;2022-09-09T04:28:20;96563.75;;;13.86;100.00
11936;BME280;6027;48.576;9.180;2022-09-09T04:30:46;96565.19;;;13.89;100.00
11936;BME280;6027;48.576;9.180;2022-09-09T04:33:13;96562.13;;;13.85;100.00
11936;BME280;6027;48.576;9.180;2022-09-09T04:35:39;96565.81;;;13.84;100.00
11936;BME280;6027;48.576;9.180;2022-09-09T04:38:08;96574.63;;;13.85;100.00
11936;BME280;6027;48.576;9.180;2022-09-09T04:40:34;96585.06;;;13.79;100.00
11936;BME280;6027;48.576;9.180;2022-09-09T04:43:01;96574.63;;;13.85;100.00
11936;BME280;6027;48.576;9.180;2022-09-09T04:45:28;96573.38;;;13.87;100.00
11936;BME280;6027;48.576;9.180;2022-09-09T04:47:54;96583.38;;;13.92;100.00
11936;BME280;6027;48.576;9.180;2022-09-09T04:50:19;96574.38;;;13.93;100.00
11936;BME280;6027;48.576;9.180;2022-09-09T04:52:45;96566.81;;;13.90;100.00
11936;BME280;6027;48.576;9.180;2022-09-09T04:55:10;96571.31;;;13.89;100.00
11936;BME280;6027;48.576;9.180;2022-09-09T04:57:36;96575.66;;;13.83;100.00
11936;BME280;6027;48.576;9.180;2022-09-09T05:00:02;96574.22;;;13.81;100.00
11936;BME280;6027;48.576;9.180;2022-09-09T05:02:29;96571.72;;;13.86;100.00
11936;BME280;6027;48.576;9.180;2022-09-09T05:04:55;96568.84;;;13.94;100.00
11936;BME280;6027;48.576;9.180;2022-09-09T05:07:21;96578.69;;;13.94;100.00
11936;BME280;6027;48.576;9.180;2022-09-09T05:09:47;96575.19;;;14.00;100.00
11936;BME280;6027;48.576;9.180;2022-09-09T05:12:15;96574.16;;;14.01;100.00
11936;BME280;6027;48.576;9.180;2022-09-09T05:14:42;96584.56;;;14.09;100.00
11936;BME280;6027;48.576;9.180;2022-09-09T05:17:09;96581.69;;;14.10;100.00
11936;BME280;6027;48.576;9.180;2022-09-09T05:19:34;96588.41;;;14.20;100.00
11936;BME280;6027;48.576;9.180;2022-09-09T05:22:00;96601.13;;;14.17;100.00
11936;BME280;6027;48.576;9.180;2022-09-09T05:24:26;96598.25;;;14.19;100.00
11936;BME280;6027;48.576;9.180;2022-09-09T05:26:52;96593.31;;;14.23;100.00
11936;BME280;6027;48.576;9.180;2022-09-09T05:29:17;96584.50;;;14.22;100.00
11936;BME280;6027;48.576;9.180;2022-09-09T05:31:45;96593.53;;;14.21;100.00
11936;BME280;6027;48.576;9.180;2022-09-09T05:34:11;96592.72;;;14.14;100.00
11936;BME280;6027;48.576;9.180;2022-09-09T05:36:36;96593.56;;;14.08;100.00
11936;BME280;6027;48.576;9.180;2022-09-09T05:39:03;96599.06;;;14.13;100.00
11936;BME280;6027;48.576;9.180;2022-09-09T05:41:31;96601.34;;;14.09;100.00
11936;BME280;6027;48.576;9.180;2022-09-09T05:43:57;96602.97;;;14.17;100.00
11936;BME280;6027;48.576;9.180;2022-09-09T05:46:24;96605.41;;;14.18;100.00
11936;BME280;6027;48.576;9.180;2022-09-09T05:48:50;96608.91;;;14.19;100.00
11936;BME280;6027;48.576;9.180;2022-09-09T05:51:27;96610.69;;;14.25;100.00
11936;BME280;6027;48.576;9.180;2022-09-09T05:53:55;96604.50;;;14.38;100.00
11936;BME280;6027;48.576;9.180;2022-09-09T05:56:25;96603.66;;;14.44;100.00
11936;BME280;6027;48.576;9.180;2022-09-09T05:58:52;96604.66;;;14.49;100.00
11936;BME280;6027;48.576;9.180;2022-09-09T06:01:35;96609.78;;;14.51;100.00
11936;BME280;6027;48.576;9.180;2022-09-09T06:04:01;96605.09;;;14.46;100.00
11936;BME280;6027;48.576;9.180;2022-09-09T06:06:31;96600.97;;;14.50;100.00
11936;BME280;6027;48.576;9.180;2022-09-09T06:08:57;96604.66;;;14.56;100.00
11936;BME280;6027;48.576;9.180;2022-09-09T06:11:25;96600.78;;;14.52;100.00
11936;BME280;6027;48.576;9.180;2022-09-09T06:13:54;96590.13;;;14.52;100.00
11936;BME280;6027;48.576;9.180;2022-09-09T06:16:25;96604.03;;;14.54;100.00
11936;BME280;6027;48.576;9.180;2022-09-09T06:18:56;96601.50;;;14.66;100.00
11936;BME280;6027;48.576;9.180;2022-09-09T06:21:24;96607.03;;;14.64;100.00
11936;BME280;6027;48.576;9.180;2022-09-09T06:23:50;96602.78;;;14.57;100.00
11936;BME280;6027;48.576;9.180;2022-09-09T06:26:21;96607.63;;;14.73;100.00
11936;BME280;6027;48.576;9.180;2022-09-09T06:28:49;96604.78;;;14.68;100.00
11936;BME280;6027;48.576;9.180;2022-09-09T06:31:17;96610.53;;;14.65;100.00
11936;BME280;6027;48.576;9.180;2022-09-09T06:33:47;96597.59;;;14.68;100.00
11936;BME280;6027;48.576;9.180;2022-09-09T06:36:15;96603.91;;;14.74;100.00
11936;BME280;6027;48.576;9.180;2022-09-09T06:38:44;96598.41;;;14.69;100.00
11936;BME280;6027;48.576;9.180;2022-09-09T06:41:12;96602.69;;;14.76;100.00
11936;BME280;6027;48.576;9.180;2022-09-09T06:43:38;96596.91;;;14.79;100.00
11936;BME280;6027;48.576;9.180;2022-09-09T06:46:12;96602.63;;;14.83;100.00
11936;BME280;6027;48.576;9.180;2022-09-09T06:48:42;96608.19;;;14.81;100.00
11936;BME280;6027;48.576;9.180;2022-09-09T06:51:20;96603.22;;;14.85;100.00
11936;BME280;6027;48.576;9.180;2022-09-09T06:53:56;96605.28;;;14.83;100.00
11936;BME280;6027;48.576;9.180;2022-09-09T06:58:51;96613.81;;;14.98;100.00
11936;BME280;6027;48.576;9.180;2022-09-09T07:01:26;96613.59;;;15.00;100.00
11936;BME280;6027;48.576;9.180;2022-09-09T07:03:55;96606.72;;;15.10;100.00
11936;BME280;6027;48.576;9.180;2022-09-09T07:06:22;96620.63;;;15.19;100.00
11936;BME280;6027;48.576;9.180;2022-09-09T07:08:53;96619.53;;;15.27;100.00
11936;BME280;6027;48.576;9.180;2022-09-09T07:11:21;96609.69;;;15.27;100.00
11936;BME280;6027;48.576;9.180;2022-09-09T07:13:47;96609.03;;;15.32;100.00
11936;BME280;6027;48.576;9.180;2022-09-09T07:16:15;96609.56;;;15.40;100.00
11936;BME280;6027;48.576;9.180;2022-09-09T07:18:41;96616.47;;;15.48;100.00
11936;BME280;6027;48.576;9.180;2022-09-09T07:21:07;96601.66;;;15.52;100.00
11936;BME280;6027;48.576;9.180;2022-09-09T07:23:34;96611.84;;;15.62;100.00
11936;BME280;6027;48.576;9.180;2022-09-09T07:26:02;96605.03;;;15.66;100.00
11936;BME280;6027;48.576;9.180;2022-09-09T07:28:28;96596.75;;;15.74;100.00
11936;BME280;6027;48.576;9.180;2022-09-09T07:30:58;96593.88;;;15.75;100.00
11936;BME280;6027;48.576;9.180;2022-09-09T07:33:24;96596.84;;;15.85;100.00
11936;BME280;6027;48.576;9.180;2022-09-09T07:35:51;96609.53;;;15.90;100.00
11936;BME280;6027;48.576;9.180;2022-09-09T07:38:17;96607.81;;;15.96;100.00
11936;BME280;6027;48.576;9.180;2022-09-09T07:40:44;96616.34;;;15.86;100.00
11936;BME280;6027;48.576;9.180;2022-09-09T07:43:10;96618.34;;;15.91;100.00
11936;BME280;6027;48.576;9.180;2022-09-09T07:45:39;96622.00;;;15.96;100.00
11936;BME280;6027;48.576;9.180;2022-09-09T07:48:06;96622.94;;;16.02;100.00
11936;BME280;6027;48.576;9.180;2022-09-09T07:50:31;96631.25;;;16.12;100.00
11936;BME280;6027;48.576;9.180;2022-09-09T07:52:57;96632.75;;;16.08;100.00
11936;BME280;6027;48.576;9.180;2022-09-09T07:55:23;96628.81;;;16.10;100.00
11936;BME280;6027;48.576;9.180;2022-09-09T07:57:53;96640.91;;;16.13;100.00
11936;BME280;6027;48.576;9.180;2022-09-09T08:00:18;96642.88;;;16.17;100.00
11936;BME280;6027;48.576;9.180;2022-09-09T08:02:45;96637.81;;;16.16;100.00
11936;BME280;6027;48.576;9.180;2022-09-09T08:05:12;96649.66;;;16.20;100.00
11936;BME280;6027;48.576;9.180;2022-09-09T08:07:38;96645.50;;;16.24;100.00
11936;BME280;6027;48.576;9.180;2022-09-09T08:10:04;96644.00;;;16.28;100.00
11936;BME280;6027;48.576;9.180;2022-09-09T08:12:29;96646.84;;;16.33;100.00
11936;BME280;6027;48.576;9.180;2022-09-09T08:14:55;96644.88;;;16.40;100.00
11936;BME280;6027;48.576;9.180;2022-09-09T08:17:20;96648.47;;;16.34;100.00
11936;BME280;6027;48.576;9.180;2022-09-09T08:19:46;96649.56;;;16.45;100.00
11936;BME280;6027;48.576;9.180;2022-09-09T08:22:11;96635.78;;;16.30;100.00
11936;BME280;6027;48.576;9.180;2022-09-09T08:24:37;96646.97;;;16.38;100.00
11936;BME280;6027;48.576;9.180;2022-09-09T08:27:02;96652.81;;;16.47;100.00
11936;BME280;6027;48.576;9.180;2022-09-09T08:29:28;96648.69;;;16.51;100.00
11936;BME280;6027;48.576;9.180;2022-09-09T08:31:56;96660.44;;;16.62;100.00
11936;BME280;6027;48.576;9.180;2022-09-09T08:34:23;96656.81;;;16.74;100.00
11936;BME280;6027;48.576;9.180;2022-09-09T08:36:50;96662.44;;;16.84;100.00
11936;BME280;6027;48.576;9.180;2022-09-09T08:39:18;96667.78;;;16.84;100.00
11936;BME280;6027;48.576;9.180;2022-09-09T08:50:13;96662.28;;;17.51;100.00
11936;BME280;6027;48.576;9.180;2022-09-09T08:55:29;96658.56;;;17.64;100.00
11936;BME280;6027;48.576;9.180;2022-09-09T08:58:12;96653.91;;;17.71;100.00
11936;BME280;6027;48.576;9.180;2022-09-09T09:00:48;96650.75;;;17.62;100.00
11936;BME280;6027;48.576;9.180;2022-09-09T09:06:26;96654.28;;;17.74;100.00
11936;BME280;6027;48.576;9.180;2022-09-09T09:11:47;96647.19;;;17.68;100.00
11936;BME280;6027;48.576;9.180;2022-09-09T09:14:26;96647.88;;;17.75;100.00
11936;BME280;6027;48.576;9.180;2022-09-09T09:19:41;96650.91;;;17.90;100.00
11936;BME280;6027;48.576;9.180;2022-09-09T09:22:42;96636.56;;;17.97;100.00
11936;BME280;6027;48.576;9.180;2022-09-09T09:25:31;96644.16;;;18.00;100.00
11936;BME280;6027;48.576;9.180;2022-09-09T09:28:11;96642.88;;;18.02;100.00
11936;BME280;6027;48.576;9.180;2022-09-09T09:30:50;96630.16;;;18.09;100.00
11936;BME280;6027;48.576;9.180;2022-09-09T09:33:23;96632.38;;;18.01;100.00
11936;BME280;6027;48.576;9.180;2022-09-09T09:35:50;96631.66;;;18.17;100.00
11936;BME280;6027;48.576;9.180;2022-09-09T09:38:21;96629.31;;;18.20;100.00
11936;BME280;6027;48.576;9.180;2022-09-09T09:40:49;96626.94;;;18.36;100.00
11936;BME280;6027;48.576;9.180;2022-09-09T09:43:20;96630.66;;;18.46;98.22
11936;BME280;6027;48.576;9.180;2022-09-09T09:45:47;96625.03;;;18.48;96.49
11936;BME280;6027;48.576;9.180;2022-09-09T09:48:13;96625.06;;;18.59;91.78
11936;BME280;6027;48.576;9.180;2022-09-09T09:50:59;96628.38;;;18.67;87.74
11936;BME280;6027;48.576;9.180;2022-09-09T09:53:28;96618.31;;;18.85;92.06
11936;BME280;6027;48.576;9.180;2022-09-09T09:56:01;96624.38;;;18.81;89.57
11936;BME280;6027;48.576;9.180;2022-09-09T09:58:30;96620.44;;;18.72;89.84
11936;BME280;6027;48.576;9.180;2022-09-09T10:00:57;96613.44;;;18.71;86.94
11936;BME280;6027;48.576;9.180;2022-09-09T10:03:30;96616.88;;;18.66;85.25
11936;BME280;6027;48.576;9.180;2022-09-09T10:05:56;96608.06;;;18.82;87.43
11936;BME280;6027;48.576;9.180;2022-09-09T10:08:27;96603.91;;;18.91;85.30
11936;BME280;6027;48.576;9.180;2022-09-09T10:35:33;96580.41;;;19.82;71.57
11936;BME280;6027;48.576;9.180;2022-09-09T10:38:12;96595.63;;;19.93;68.06
11936;BME280;6027;48.576;9.180;2022-09-09T10:51:44;96575.75;;;19.94;67.95
11936;BME280;6027;48.576;9.180;2022-09-09T10:56:58;96565.69;;;20.07;62.56
11936;BME280;6027;48.576;9.180;2022-09-09T10:59:30;96568.44;;;20.12;65.10
11936;BME280;6027;48.576;9.180;2022-09-09T11:02:07;96562.09;;;20.40;65.44
11936;BME280;6027;48.576;9.180;2022-09-09T11:04:49;96561.44;;;20.54;59.45
11936;BME280;6027;48.576;9.180;2022-09-09T11:07:59;96569.84;;;20.58;59.42
11936;BME280;6027;48.576;9.180;2022-09-09T11:10:39;96576.38;;;20.67;56.89
11936;BME280;6027;48.576;9.180;2022-09-09T11:13:19;96582.56;;;20.67;56.82
11936;BME280;6027;48.576;9.180;2022-09-09T11:15:54;96575.97;;;20.53;55.46
11936;BME280;6027;48.576;9.180;2022-09-09T11:18:22;96576.88;;;20.37;58.18
11936;BME280;6027;48.576;9.180;2022-09-09T11:20:51;96576.75;;;20.10;58.26
11936;BME280;6027;48.576;9.180;2022-09-09T11:23:23;96595.34;;;19.73;61.08
11936;BME280;6027;48.576;9.180;2022-09-09T11:25:57;96619.03;;;19.43;61.57
11936;BME280;6027;48.576;9.180;2022-09-09T11:37:11;96606.38;;;18.24;74.21
11936;BME280;6027;48.576;9.180;2022-09-09T11:42:23;96600.84;;;18.31;77.85
11936;BME280;6027;48.576;9.180;2022-09-09T11:44:49;96593.41;;;18.33;77.30
11936;BME280;6027;48.576;9.180;2022-09-09T11:47:26;96599.97;;;18.25;75.61
11936;BME280;6027;48.576;9.180;2022-09-09T11:52:42;96602.59;;;18.37;73.89
11936;BME280;6027;48.576;9.180;2022-09-09T11:55:30;96611.66;;;18.59;67.90
11936;BME280;6027;48.576;9.180;2022-09-09T12:00:35;96602.44;;;18.84;67.95
11936;BME280;6027;48.576;9.180;2022-09-09T12:03:03;96605.97;;;19.01;64.12
11936;BME280;6027;48.576;9.180;2022-09-09T12:05:42;96619.31;;;19.13;62.47
11936;BME280;6027;48.576;9.180;2022-09-09T12:08:15;96602.16;;;19.14;64.26
11936;BME280;6027;48.576;9.180;2022-09-09T12:10:53;96604.13;;;19.35;61.04
11936;BME280;6027;48.576;9.180;2022-09-09T12:13:22;96605.31;;;19.44;60.15
11936;BME280;6027;48.576;9.180;2022-09-09T12:15:50;96602.41;;;19.46;61.54
11936;BME280;6027;48.576;9.180;2022-09-09T12:18:33;96587.13;;;19.63;61.91
11936;BME280;6027;48.576;9.180;2022-09-09T12:21:39;96598.59;;;19.75;57.67
11936;BME280;6027;48.576;9.180;2022-09-09T12:24:13;96592.66;;;19.73;57.87
11936;BME280;6027;48.576;9.180;2022-09-09T12:34:40;96591.47;;;19.86;58.44
11936;BME280;6027;48.576;9.180;2022-09-09T12:37:44;96592.44;;;19.96;59.95
11936;BME280;6027;48.576;9.180;2022-09-09T12:40:22;96595.75;;;20.04;59.59
11936;BME280;6027;48.576;9.180;2022-09-09T12:42:48;96587.19;;;20.07;59.61
11936;BME280;6027;48.576;9.180;2022-09-09T12:45:22;96596.19;;;19.95;59.46
11936;BME280;6027;48.576;9.180;2022-09-09T12:48:00;96592.84;;;19.88;60.46
11936;BME280;6027;48.576;9.180;2022-09-09T12:50:29;96587.69;;;20.04;61.31
11936;BME280;6027;48.576;9.180;2022-09-09T12:53:07;96579.44;;;20.32;60.01
11936;BME280;6027;48.576;9.180;2022-09-09T12:55:36;96579.53;;;20.15;56.27
11936;BME280;6027;48.576;9.180;2022-09-09T12:58:04;96576.06;;;19.98;58.60
11936;BME280;6027;48.576;9.180;2022-09-09T13:00:31;96578.81;;;19.81;56.85
11936;BME280;6027;48.576;9.180;2022-09-09T13:02:59;96586.81;;;19.59;56.59
11936;BME280;6027;48.576;9.180;2022-09-09T13:05:36;96588.00;;;19.35;57.18
11936;BME280;6027;48.576;9.180;2022-09-09T13:08:10;96589.31;;;19.32;57.27
11936;BME280;6027;48.576;9.180;2022-09-09T13:10:57;96581.41;;;19.26;57.05
11936;BME280;6027;48.576;9.180;2022-09-09T13:13:43;96585.09;;;19.20;56.99
11936;BME280;6027;48.576;9.180;2022-09-09T13:16:29;96591.09;;;19.44;59.07
11936;BME280;6027;48.576;9.180;2022-09-09T13:19:09;96576.56;;;19.56;57.92
11936;BME280;6027;48.576;9.180;2022-09-09T13:21:40;96574.41;;;19.75;58.47
11936;BME280;6027;48.576;9.180;2022-09-09T13:24:21;96569.13;;;19.80;57.36
11936;BME280;6027;48.576;9.180;2022-09-09T13:26:58;96570.75;;;19.81;59.37
11936;BME280;6027;48.576;9.180;2022-09-09T13:29:24;96570.47;;;19.99;59.01
11936;BME280;6027;48.576;9.180;2022-09-09T13:31:50;96574.72;;;20.17;60.60
11936;BME280;6027;48.576;9.180;2022-09-09T13:34:29;96567.56;;;20.28;57.48
11936;BME280;6027;48.576;9.180;2022-09-09T13:36:59;96570.75;;;20.25;57.68
11936;BME280;6027;48.576;9.180;2022-09-09T13:39:28;96576.09;;;20.20;57.45
11936;BME280;6027;48.576;9.180;2022-09-09T13:41:53;96564.63;;;20.08;58.83
11936;BME280;6027;48.576;9.180;2022-09-09T13:44:29;96555.69;;;20.24;57.12
11936;BME280;6027;48.576;9.180;2022-09-09T13:49:33;96562.06;;;19.96;56.00
11936;BME280;6027;48.576;9.180;2022-09-09T13:52:10;96562.31;;;19.94;56.37
11936;BME280;6027;48.576;9.180;2022-09-09T13:54:36;96554.69;;;20.08;58.12
11936;BME280;6027;48.576;9.180;2022-09-09T13:57:02;96552.56;;;20.32;59.39
11936;BME280;6027;48.576;9.180;2022-09-09T13:59:27;96552.31;;;20.55;55.75
11936;BME280;6027;48.576;9.180;2022-09-09T14:01:53;96553.47;;;20.64;55.67
11936;BME280;6027;48.576;9.180;2022-09-09T14:04:19;96549.66;;;20.60;54.23
11936;BME280;6027;48.576;9.180;2022-09-09T14:06:48;96547.25;;;20.59;54.15
11936;BME280;6027;48.576;9.180;2022-09-09T14:09:15;96534.66;;;20.64;52.70
11936;BME280;6027;48.576;9.180;2022-09-09T14:11:42;96542.78;;;20.69;51.70
11936;BME280;6027;48.576;9.180;2022-09-09T14:14:08;96540.44;;;20.78;51.98
11936;BME280;6027;48.576;9.180;2022-09-09T14:16:34;96541.16;;;20.68;49.74
11936;BME280;6027;48.576;9.180;2022-09-09T14:18:59;96543.53;;;20.65;52.17
11936;BME280;6027;48.576;9.180;2022-09-09T14:21:26;96543.78;;;20.63;52.82
11936;BME280;6027;48.576;9.180;2022-09-09T14:23:52;96538.25;;;20.75;52.03
11936;BME280;6027;48.576;9.180;2022-09-09T14:26:19;96549.16;;;20.90;54.44
11936;BME280;6027;48.576;9.180;2022-09-09T14:28:47;96535.31;;;21.09;50.64
11936;BME280;6027;48.576;9.180;2022-09-09T14:31:12;96535.81;;;21.06;51.07
11936;BME280;6027;48.576;9.180;2022-09-09T14:33:43;96538.72;;;20.99;50.73
11936;BME280;6027;48.576;9.180;2022-09-09T14:36:10;96535.06;;;21.10;50.90
11936;BME280;6027;48.576;9.180;2022-09-09T14:38:37;96541.72;;;21.02;50.70
11936;BME280;6027;48.576;9.180;2022-09-09T14:41:09;96546.66;;;20.84;50.95
11936;BME280;6027;48.576;9.180;2022-09-09T14:43:36;96542.53;;;20.71;51.88
11936;BME280;6027;48.576;9.180;2022-09-09T14:46:13;96530.81;;;20.55;50.99
11936;BME280;6027;48.576;9.180;2022-09-09T14:48:39;96538.69;;;20.40;51.26
11936;BME280;6027;48.576;9.180;2022-09-09T14:51:23;96534.91;;;20.63;50.81
11936;BME280;6027;48.576;9.180;2022-09-09T14:53:51;96532.09;;;20.80;49.73
11936;BME280;6027;48.576;9.180;2022-09-09T14:56:20;96536.34;;;21.02;50.23
11936;BME280;6027;48.576;9.180;2022-09-09T14:58:47;96540.34;;;21.00;49.68
11936;BME280;6027;48.576;9.180;2022-09-09T15:01:15;96532.25;;;20.95;50.76
11936;BME280;6027;48.576;9.180;2022-09-09T15:03:43;96538.97;;;20.92;50.71
11936;BME280;6027;48.576;9.180;2022-09-09T15:06:14;96529.03;;;20.98;49.46
11936;BME280;6027;48.576;9.180;2022-09-09T15:08:41;96532.63;;;21.09;48.98
11936;BME280;6027;48.576;9.180;2022-09-09T15:11:09;96540.59;;;21.25;49.95
11936;BME280;6027;48.576;9.180;2022-09-09T15:13:35;96545.41;;;21.23;48.56
11936;BME280;6027;48.576;9.180;2022-09-09T15:16:14;96542.59;;;21.08;47.66
11936;BME280;6027;48.576;9.180;2022-09-09T15:18:40;96546.78;;;20.94;48.89
11936;BME280;6027;48.576;9.180;2022-09-09T15:21:15;96546.59;;;20.74;48.63
11936;BME280;6027;48.576;9.180;2022-09-09T15:23:40;96541.34;;;20.89;47.41
11936;BME280;6027;48.576;9.180;2022-09-09T15:26:06;96530.66;;;20.99;48.07
11936;BME280;6027;48.576;9.180;2022-09-09T15:28:33;96536.94;;;21.10;47.50